Terminal Aerodrome Forecast
Issued by NWS St Louis, MO

Home | Current Version | Previous Version | Text Only | Print | Product List | Glossary On
Versions: 1 2 3 4 5 6 7 8 9 10 11 12 13 14 15 16 17 18 19 20 21 22 23 24 25 26 27 28 29 30 31
000
FTUS43 KLSX 291400 AAA
TAFSTL
TAF AMD
KSTL 291451Z 2915/3018 18010KT P6SM SCT035 BKN120
     FM292100 18010KT P6SM VCTS SCT040CB BKN100
     FM300300 20007KT P6SM SCT040 BKN100 PROB30 3003/3007 5SM -TSRA
      BKN030CB
     FM300700 20007KT P6SM VCSH BKN080
     FM301300 23009KT P6SM BKN080=

USA.gov is the U.S. government's official web portal to all federal, state and local government web resources and services.